Time;durP1;ratioP1;P1;durP2;ratioP2;P2;SDS_P1;SDS_P2;PMS_P1;PMS_P2;Temp;Humidity;BMP_temperature;BMP_pressure;BME280_temperature;BME280_humidity;BME280_pressure;Samples;Min_cycle;Max_cycle;Signal;HPM_P1;HPM_P2
2023/09/17 00:00:36;;;;;;;21.50;19.52;;;18.00;99.90;;;;;;5062829;28;20039;-55
2023/09/17 00:03:03;;;;;;;21.05;19.05;;;17.90;99.90;;;;;;5062256;28;20040;-52
2023/09/17 00:05:31;;;;;;;23.30;19.60;;;17.90;99.90;;;;;;5058743;28;20051;-53
2023/09/17 00:07:56;;;;;;;21.05;18.92;;;17.80;99.90;;;;;;5057084;28;20060;-53
2023/09/17 00:10:22;;;;;;;19.20;17.08;;;17.80;99.90;;;;;;5062194;28;20229;-54
2023/09/17 00:12:53;;;;;;;20.83;18.83;;;17.80;99.90;;;;;;5062868;28;20075;-54
2023/09/17 00:15:19;;;;;;;19.95;18.08;;;17.70;99.90;;;;;;5058903;28;20041;-54
2023/09/17 00:17:45;;;;;;;19.50;17.58;;;17.70;99.90;;;;;;5062447;28;20411;-53
2023/09/17 00:20:11;;;;;;;24.45;20.13;;;17.70;99.90;;;;;;5060791;28;20033;-54
2023/09/17 00:22:37;;;;;;;21.27;19.13;;;17.70;99.90;;;;;;5063459;28;20165;-54
2023/09/17 00:25:04;;;;;;;20.63;18.50;;;17.70;99.90;;;;;;5058556;28;20115;-55
2023/09/17 00:27:30;;;;;;;20.75;18.65;;;17.70;99.90;;;;;;5062303;28;20075;-53
2023/09/17 00:29:56;;;;;;;22.02;18.83;;;17.70;99.90;;;;;;5060281;28;20546;-55
2023/09/17 00:32:21;;;;;;;20.77;18.63;;;17.70;99.90;;;;;;5061916;28;20166;-55
2023/09/17 00:34:47;;;;;;;21.25;19.10;;;17.70;99.90;;;;;;5061478;28;20032;-54
2023/09/17 00:37:13;;;;;;;21.50;19.42;;;17.70;99.90;;;;;;5060256;28;20072;-54
2023/09/17 00:39:39;;;;;;;23.02;20.77;;;17.70;99.90;;;;;;5062567;28;20087;-52
2023/09/17 00:42:06;;;;;;;22.42;19.50;;;17.70;99.90;;;;;;5059809;28;20049;-53
2023/09/17 00:44:32;;;;;;;23.38;21.00;;;17.70;99.90;;;;;;5063161;28;20048;-54
2023/09/17 00:47:00;;;;;;;;;;;17.70;99.90;;;;;;5061915;28;20044;-55
2023/09/17 00:49:26;;;;;;;23.70;21.30;;;17.70;99.90;;;;;;5062527;28;19931;-53
2023/09/17 00:51:52;;;;;;;22.58;20.10;;;17.70;99.90;;;;;;5067098;28;20048;-51
2023/09/17 00:54:18;;;;;;;22.50;20.40;;;17.70;99.90;;;;;;5066782;28;20064;-51
2023/09/17 00:56:43;;;;;;;22.33;20.20;;;17.70;99.90;;;;;;5062417;28;20087;-50
2023/09/17 00:59:10;;;;;;;27.17;19.90;;;17.70;99.90;;;;;;5057174;28;20041;-52
2023/09/17 01:01:36;;;;;;;23.08;19.33;;;17.70;99.90;;;;;;5061813;28;20045;-53
2023/09/17 01:04:03;;;;;;;20.70;18.33;;;17.70;99.90;;;;;;5061318;28;20046;-55
2023/09/17 01:06:29;;;;;;;19.58;17.55;;;17.60;99.90;;;;;;5063106;28;20089;-55
2023/09/17 01:08:55;;;;;;;19.42;17.33;;;17.60;99.90;;;;;;5061504;28;20040;-54
2023/09/17 01:11:20;;;;;;;18.20;16.40;;;17.70;99.90;;;;;;5061666;28;20037;-52
2023/09/17 01:13:58;;;;;;;20.90;18.70;;;17.70;99.90;;;;;;5066552;28;20064;-54
2023/09/17 01:16:26;;;;;;;16.98;15.40;;;17.70;99.90;;;;;;5066714;28;20084;-54
2023/09/17 01:18:53;;;;;;;18.45;16.55;;;17.70;99.90;;;;;;5066195;28;20046;-54
2023/09/17 01:21:31;;;;;;;19.33;16.92;;;17.70;99.90;;;;;;5065835;28;20078;-53
2023/09/17 01:24:17;;;;;;;18.75;16.50;;;17.60;99.90;;;;;;5065074;28;20041;-53
2023/09/17 01:26:55;;;;;;;17.65;15.90;;;17.60;99.90;;;;;;5060383;28;20146;-55
2023/09/17 01:29:22;;;;;;;18.95;16.98;;;17.60;99.90;;;;;;5066205;28;20411;-54
2023/09/17 01:31:48;;;;;;;17.52;15.82;;;17.60;99.90;;;;;;5066035;28;20044;-55
2023/09/17 01:34:14;;;;;;;18.05;16.30;;;17.60;99.90;;;;;;5063152;28;20048;-53
2023/09/17 01:36:42;;;;;;;18.85;16.40;;;17.50;99.90;;;;;;5065477;28;20780;-52
2023/09/17 01:39:23;;;;;;;19.15;17.05;;;17.50;99.90;;;;;;5061608;28;20072;-53
2023/09/17 01:41:50;;;;;;;18.00;15.85;;;17.50;99.90;;;;;;5066797;28;20040;-52
2023/09/17 01:44:17;;;;;;;23.13;16.23;;;17.40;99.90;;;;;;5065261;28;20115;-52
2023/09/17 01:46:44;;;;;;;18.67;16.60;;;17.40;99.90;;;;;;5066813;28;20040;-49
2023/09/17 01:49:11;;;;;;;18.95;16.95;;;17.30;99.90;;;;;;5064134;28;20146;-51
2023/09/17 01:51:38;;;;;;;21.05;17.50;;;17.30;99.90;;;;;;5065554;28;20603;-53
2023/09/17 01:54:05;;;;;;;19.83;17.48;;;17.30;99.90;;;;;;5065053;28;20037;-54
2023/09/17 01:56:37;;;;;;;23.38;19.48;;;17.30;99.90;;;;;;5061464;28;20556;-54
2023/09/17 01:59:04;;;;;;;21.23;18.77;;;17.30;99.90;;;;;;5061186;28;20112;-52
2023/09/17 02:01:30;;;;;;;21.23;18.83;;;17.30;99.90;;;;;;5059253;28;20041;-52
2023/09/17 02:03:57;;;;;;;;;;;17.30;99.90;;;;;;5057006;28;20033;-50
2023/09/17 02:06:23;;;;;;;20.58;18.48;;;17.30;99.90;;;;;;5058963;28;19917;-51
2023/09/17 02:08:49;;;;;;;23.48;20.75;;;17.20;99.90;;;;;;5060052;28;20032;-53
2023/09/17 02:11:14;;;;;;;23.55;21.13;;;17.30;99.90;;;;;;5061682;28;20044;-54
2023/09/17 02:13:40;;;;;;;24.85;22.17;;;17.30;99.90;;;;;;5065185;28;20109;-50
2023/09/17 02:16:07;;;;;;;24.45;21.88;;;17.30;99.90;;;;;;5062939;28;20175;-50
2023/09/17 02:18:32;;;;;;;30.10;22.98;;;17.30;99.90;;;;;;5062925;28;20040;-54
2023/09/17 02:20:58;;;;;;;24.20;21.52;;;17.30;99.90;;;;;;5064679;28;20033;-53
2023/09/17 02:23:24;;;;;;;26.33;23.73;;;17.30;99.90;;;;;;5065743;28;20037;-51
2023/09/17 02:25:49;;;;;;;25.75;21.77;;;17.30;99.90;;;;;;5066070;28;20324;-49
2023/09/17 02:28:15;;;;;;;26.70;23.90;;;17.20;99.90;;;;;;5066335;28;20578;-50
2023/09/17 02:30:40;;;;;;;26.20;23.20;;;17.20;99.90;;;;;;5060582;28;20054;-50
2023/09/17 02:33:06;;;;;;;25.58;22.63;;;17.20;99.90;;;;;;5040508;28;20037;-52
2023/09/17 02:35:33;;;;;;;24.92;22.45;;;17.20;99.90;;;;;;5061091;28;20546;-53
2023/09/17 02:37:58;;;;;;;29.20;24.15;;;17.20;99.90;;;;;;5060607;28;20055;-50
2023/09/17 02:40:24;;;;;;;26.42;23.73;;;17.10;99.90;;;;;;5063299;28;20033;-52
2023/09/17 02:42:50;;;;;;;28.63;25.58;;;17.10;99.90;;;;;;5061117;28;20044;-54
2023/09/17 02:45:16;;;;;;;30.48;27.27;;;17.10;99.90;;;;;;5062754;28;20033;-52
2023/09/17 02:47:41;;;;;;;31.58;27.00;;;17.00;99.90;;;;;;5062493;28;20040;-49
2023/09/17 02:50:09;;;;;;;29.55;26.23;;;17.00;99.90;;;;;;5063474;28;20170;-51
2023/09/17 02:52:35;;;;;;;33.67;26.67;;;16.90;99.90;;;;;;5066107;28;20119;-49
2023/09/17 02:55:04;;;;;;;34.45;28.48;;;16.80;99.90;;;;;;5064123;28;20570;-52
2023/09/17 02:57:30;;;;;;;31.88;28.50;;;16.80;99.90;;;;;;5065485;28;20044;-49
2023/09/17 02:59:56;;;;;;;34.53;29.45;;;16.80;99.90;;;;;;5062152;28;20059;-52
2023/09/17 03:02:22;;;;;;;31.77;28.05;;;16.80;99.90;;;;;;5064523;28;20446;-53
2023/09/17 03:04:47;;;;;;;33.08;29.35;;;16.70;99.90;;;;;;5065588;28;20380;-49
2023/09/17 03:07:14;;;;;;;32.08;27.58;;;16.70;99.90;;;;;;5062064;28;20041;-52
2023/09/17 03:09:42;;;;;;;35.17;29.60;;;16.70;99.90;;;;;;5059371;28;20029;-53
2023/09/17 03:12:07;;;;;;;31.50;28.15;;;16.70;99.90;;;;;;5063112;28;20090;-48
2023/09/17 03:14:33;;;;;;;33.00;29.02;;;16.80;99.90;;;;;;5065697;28;20524;-50
2023/09/17 03:16:59;;;;;;;34.80;30.52;;;16.80;99.90;;;;;;5066158;28;20032;-52
2023/09/17 03:19:26;;;;;;;33.88;30.23;;;16.80;99.90;;;;;;5064898;28;20040;-51
2023/09/17 03:21:52;;;;;;;32.17;29.02;;;16.80;99.90;;;;;;5065226;28;20032;-52
2023/09/17 03:24:17;;;;;;;35.10;31.45;;;16.80;99.90;;;;;;5062704;28;20052;-50
2023/09/17 03:26:43;;;;;;;33.85;30.38;;;16.80;99.90;;;;;;5065198;28;20052;-52
2023/09/17 03:29:08;;;;;;;34.40;30.73;;;16.80;99.90;;;;;;5066021;28;20052;-49
2023/09/17 03:31:34;;;;;;;38.95;31.92;;;16.80;99.90;;;;;;5071628;28;20048;-49
2023/09/17 03:34:00;;;;;;;33.53;29.90;;;16.80;99.90;;;;;;5062077;28;20048;-49
2023/09/17 03:36:26;;;;;;;35.25;30.98;;;16.70;99.90;;;;;;5056299;28;20105;-47
2023/09/17 03:38:51;;;;;;;38.60;32.33;;;16.70;99.90;;;;;;5060578;28;20051;-50
2023/09/17 03:41:17;;;;;;;40.25;32.22;;;16.70;99.90;;;;;;5063000;28;20068;-50
2023/09/17 03:43:42;;;;;;;38.10;33.70;;;16.70;99.90;;;;;;5059711;28;20130;-52
2023/09/17 03:46:08;;;;;;;38.97;34.78;;;16.70;99.90;;;;;;5058827;28;20183;-53
2023/09/17 03:48:33;;;;;;;39.30;35.00;;;16.60;99.90;;;;;;5061989;28;20109;-50
2023/09/17 03:51:00;;;;;;;37.70;33.70;;;16.50;99.90;;;;;;5060671;28;20106;-51
2023/09/17 03:53:27;;;;;;;38.17;32.50;;;16.50;99.90;;;;;;5063772;28;20058;-51
2023/09/17 03:55:53;;;;;;;38.40;31.92;;;16.50;99.90;;;;;;5061349;28;20043;-51
2023/09/17 03:58:19;;;;;;;35.45;31.83;;;16.50;99.90;;;;;;5063692;28;20029;-49
2023/09/17 04:00:44;;;;;;;36.78;32.72;;;16.50;99.90;;;;;;5064971;28;20029;-50
2023/09/17 04:03:12;;;;;;;34.75;31.20;;;16.60;99.90;;;;;;5062979;28;20518;-54
2023/09/17 04:05:38;;;;;;;33.75;30.35;;;16.60;99.90;;;;;;5063431;28;20053;-53
2023/09/17 04:08:04;;;;;;;32.58;29.05;;;16.70;99.90;;;;;;5062987;28;20055;-53
2023/09/17 04:10:29;;;;;;;34.85;31.25;;;16.70;99.90;;;;;;5061816;28;20408;-50
2023/09/17 04:12:55;;;;;;;34.33;30.73;;;16.80;99.90;;;;;;5057713;28;20032;-51
2023/09/17 04:15:21;;;;;;;34.70;31.17;;;16.80;99.90;;;;;;5057909;28;20028;-50
2023/09/17 04:17:49;;;;;;;37.83;31.45;;;16.80;99.90;;;;;;5063453;28;20056;-53
2023/09/17 04:20:18;;;;;;;38.53;32.42;;;16.90;99.90;;;;;;5062258;28;20595;-49
2023/09/17 04:22:49;;;;;;;35.80;31.98;;;16.90;99.90;;;;;;5064755;28;20036;-47
2023/09/17 04:25:16;;;;;;;40.47;33.75;;;16.90;99.90;;;;;;5060792;28;20033;-53
2023/09/17 04:27:44;;;;;;;37.88;33.90;;;16.80;99.90;;;;;;5064686;28;20587;-50
2023/09/17 04:30:11;;;;;;;37.72;33.03;;;16.80;99.90;;;;;;5062398;28;20407;-51
2023/09/17 04:32:38;;;;;;;37.50;33.50;;;16.80;99.90;;;;;;5062965;28;20101;-51
2023/09/17 04:35:08;;;;;;;40.95;35.20;;;16.80;99.90;;;;;;5058213;28;20075;-49
2023/09/17 04:37:35;;;;;;;40.17;35.28;;;16.80;99.90;;;;;;5056047;28;20044;-51
2023/09/17 04:40:04;;;;;;;42.33;37.25;;;16.80;99.90;;;;;;5057946;28;20082;-52
2023/09/17 04:42:31;;;;;;;44.58;36.88;;;16.80;99.90;;;;;;5062758;28;20521;-52
2023/09/17 04:44:57;;;;;;;40.70;35.17;;;16.80;99.90;;;;;;5063561;28;20040;-49
2023/09/17 04:47:23;;;;;;;52.33;39.17;;;16.70;99.90;;;;;;5054680;28;20526;-50
2023/09/17 04:49:48;;;;;;;44.05;37.83;;;16.70;99.90;;;;;;5061509;28;20376;-48
2023/09/17 04:52:14;;;;;;;45.42;40.50;;;16.80;99.90;;;;;;5059481;28;20036;-48
2023/09/17 04:54:40;;;;;;;44.83;39.63;;;16.70;99.90;;;;;;5064797;28;20491;-49
2023/09/17 04:57:07;;;;;;;;;;;16.70;99.90;;;;;;5060234;28;20515;-51
2023/09/17 04:59:33;;;;;;;51.58;40.13;;;16.70;99.90;;;;;;5060588;28;19916;-49
2023/09/17 05:01:59;;;;;;;;;;;16.70;99.90;;;;;;5063295;28;20029;-49
2023/09/17 05:04:24;;;;;;;41.72;36.25;;;16.70;99.90;;;;;;5062665;28;19917;-54
2023/09/17 05:06:50;;;;;;;47.10;37.00;;;16.70;99.90;;;;;;5061570;28;20043;-53
2023/09/17 05:09:16;;;;;;;43.60;37.88;;;16.70;99.90;;;;;;5058925;28;20500;-49
2023/09/17 05:11:41;;;;;;;43.10;38.35;;;16.70;99.90;;;;;;5064453;28;20044;-49
2023/09/17 05:14:07;;;;;;;43.15;36.78;;;16.70;99.90;;;;;;5061152;28;20037;-50
2023/09/17 05:16:34;;;;;;;42.17;37.58;;;16.70;99.90;;;;;;5066231;28;20044;-48
2023/09/17 05:18:59;;;;;;;42.67;36.58;;;16.70;99.90;;;;;;5058724;28;20024;-50
2023/09/17 05:21:25;;;;;;;40.28;36.00;;;16.80;99.90;;;;;;5052101;28;20044;-50
2023/09/17 05:23:50;;;;;;;43.30;36.50;;;16.80;99.90;;;;;;5064127;28;20036;-50
2023/09/17 05:26:16;;;;;;;42.50;34.10;;;16.80;99.90;;;;;;5062442;28;20040;-49
2023/09/17 05:28:42;;;;;;;41.78;35.38;;;16.80;99.90;;;;;;5064379;28;20044;-49
2023/09/17 05:31:07;;;;;;;41.03;36.25;;;16.80;99.90;;;;;;5044464;28;20479;-49
2023/09/17 05:33:33;;;;;;;42.83;36.60;;;16.80;99.90;;;;;;5061488;28;20037;-50
2023/09/17 05:35:59;;;;;;;43.40;37.35;;;16.80;99.90;;;;;;5059332;28;20043;-50
2023/09/17 05:38:26;;;;;;;50.95;40.38;;;16.80;99.90;;;;;;5057807;28;20056;-51
2023/09/17 05:40:52;;;;;;;41.60;35.35;;;16.80;99.90;;;;;;5062775;28;20040;-49
2023/09/17 05:43:18;;;;;;;46.72;38.03;;;16.80;99.90;;;;;;5062796;28;20450;-51
2023/09/17 05:45:43;;;;;;;45.22;38.83;;;16.80;99.90;;;;;;5064240;28;20036;-51
2023/09/17 05:48:09;;;;;;;41.22;36.83;;;16.80;99.90;;;;;;5062611;28;20406;-50
2023/09/17 05:50:36;;;;;;;50.15;37.88;;;16.80;99.90;;;;;;5064497;28;20063;-51
2023/09/17 05:53:02;;;;;;;47.53;38.75;;;16.80;99.90;;;;;;5062716;28;20045;-50
2023/09/17 05:55:28;;;;;;;53.70;43.20;;;16.90;99.90;;;;;;5059830;28;20372;-50
2023/09/17 05:57:54;;;;;;;48.33;40.65;;;16.80;99.90;;;;;;5063909;28;20044;-54
2023/09/17 06:00:22;;;;;;;47.75;39.28;;;16.90;99.90;;;;;;5066021;28;20111;-48
2023/09/17 06:02:47;;;;;;;48.70;41.38;;;16.80;99.90;;;;;;5063874;28;20562;-49
2023/09/17 06:05:13;;;;;;;51.38;43.45;;;16.80;99.90;;;;;;5071879;28;20064;-49
2023/09/17 06:07:38;;;;;;;55.72;46.95;;;16.80;99.90;;;;;;5068287;28;20767;-47
2023/09/17 06:10:05;;;;;;;55.72;45.92;;;16.80;99.90;;;;;;5070826;28;20032;-52
2023/09/17 06:12:31;;;;;;;58.33;50.78;;;16.80;99.90;;;;;;5072107;28;20051;-51
2023/09/17 06:14:57;;;;;;;;;;;16.80;99.90;;;;;;5056281;28;20432;-51
2023/09/17 06:17:22;;;;;;;60.03;49.33;;;16.80;99.90;;;;;;5064084;28;19917;-49
2023/09/17 06:19:48;;;;;;;57.95;48.20;;;16.80;99.90;;;;;;5070978;28;20041;-48
2023/09/17 06:22:13;;;;;;;58.03;51.25;;;16.80;99.90;;;;;;5062593;28;20037;-51
2023/09/17 06:24:39;;;;;;;60.30;50.47;;;16.80;99.90;;;;;;5055907;28;20068;-49
2023/09/17 06:27:05;;;;;;;60.92;50.80;;;16.80;99.90;;;;;;5052175;28;20048;-49
2023/09/17 06:29:30;;;;;;;56.53;50.25;;;16.80;99.90;;;;;;5059615;28;20106;-50
2023/09/17 06:31:56;;;;;;;60.83;49.83;;;16.80;99.90;;;;;;5057203;28;20040;-50
2023/09/17 06:34:22;;;;;;;63.13;52.70;;;16.80;99.90;;;;;;5060405;28;20594;-51
2023/09/17 06:36:47;;;;;;;62.10;52.30;;;16.80;99.90;;;;;;5061587;28;20040;-49
2023/09/17 06:39:13;;;;;;;66.25;54.72;;;16.90;99.90;;;;;;5061107;28;20025;-50
2023/09/17 06:41:39;;;;;;;65.72;51.30;;;16.90;99.90;;;;;;5070680;28;20037;-49
2023/09/17 06:44:05;;;;;;;57.70;50.22;;;16.90;99.90;;;;;;5066665;28;20072;-48
2023/09/17 06:46:31;;;;;;;57.30;49.28;;;16.90;99.90;;;;;;5068196;28;20119;-49
2023/09/17 06:48:57;;;;;;;64.38;54.45;;;16.90;99.90;;;;;;5067675;28;20118;-48
2023/09/17 06:51:23;;;;;;;59.22;50.10;;;16.90;99.90;;;;;;5069724;28;20045;-49
2023/09/17 06:53:48;;;;;;;61.72;52.20;;;17.00;99.90;;;;;;5064650;28;20064;-49
2023/09/17 06:56:14;;;;;;;62.80;54.25;;;17.00;99.90;;;;;;5068054;28;20032;-49
2023/09/17 06:58:40;;;;;;;71.20;57.40;;;17.00;99.90;;;;;;5068254;28;20514;-49
2023/09/17 07:01:07;;;;;;;62.00;54.97;;;17.10;99.90;;;;;;5066588;28;20074;-50
2023/09/17 07:03:32;;;;;;;64.70;56.08;;;17.10;99.90;;;;;;5067782;28;20044;-50
2023/09/17 07:05:58;;;;;;;64.47;54.88;;;17.10;99.90;;;;;;5069439;28;20115;-51
2023/09/17 07:08:24;;;;;;;61.33;53.97;;;17.10;99.90;;;;;;5060210;28;20172;-49
2023/09/17 07:10:50;;;;;;;;;;;17.20;99.90;;;;;;5059893;28;20036;-50
2023/09/17 07:13:16;;;;;;;65.85;54.88;;;17.20;99.90;;;;;;5061172;28;19920;-52
2023/09/17 07:15:43;;;;;;;72.63;57.58;;;17.20;99.90;;;;;;5065509;28;20044;-48
2023/09/17 07:18:10;;;;;;;67.70;56.63;;;17.20;99.90;;;;;;5055715;28;20041;-51
2023/09/17 07:20:36;;;;;;;65.78;58.33;;;17.30;99.90;;;;;;5060229;28;20033;-50
2023/09/17 07:23:02;;;;;;;;;;;17.30;99.90;;;;;;5037146;28;20048;-50
2023/09/17 07:25:27;;;;;;;65.00;55.40;;;17.30;99.90;;;;;;5051456;28;19917;-52
2023/09/17 07:27:53;;;;;;;68.22;58.13;;;17.30;99.90;;;;;;5065927;28;20186;-52
2023/09/17 07:30:19;;;;;;;73.53;59.45;;;17.40;99.90;;;;;;5054378;28;20476;-51
2023/09/17 07:32:44;;;;;;;64.80;57.00;;;17.40;99.90;;;;;;5056309;28;20500;-49
2023/09/17 07:35:10;;;;;;;72.03;59.13;;;17.40;99.90;;;;;;5054126;28;20501;-52
2023/09/17 07:37:35;;;;;;;58.40;52.03;;;17.40;99.90;;;;;;5048915;28;20041;-51
2023/09/17 07:40:05;;;;;;;57.72;51.08;;;17.40;99.90;;;;;;5047857;28;20085;-52
2023/09/17 07:42:31;;;;;;;54.10;46.15;;;17.40;99.90;;;;;;5051519;28;20032;-52
2023/09/17 07:44:57;;;;;;;;;;;17.50;99.90;;;;;;5051413;28;20410;-49
2023/09/17 07:47:23;;;;;;;54.22;48.33;;;17.60;99.90;;;;;;5048338;28;19917;-55
2023/09/17 07:49:48;;;;;;;55.95;49.63;;;17.60;99.90;;;;;;5052658;28;20476;-53
2023/09/17 07:52:14;;;;;;;52.58;46.97;;;17.60;99.90;;;;;;5047945;28;20511;-54
2023/09/17 07:54:41;;;;;;;51.08;45.67;;;17.70;99.90;;;;;;5049380;28;20070;-53
2023/09/17 07:57:09;;;;;;;50.90;44.40;;;17.70;99.90;;;;;;5058963;28;20028;-50
2023/09/17 07:59:34;;;;;;;49.55;44.28;;;17.80;99.90;;;;;;5056316;28;20476;-54
2023/09/17 08:02:01;;;;;;;50.53;44.65;;;17.80;99.90;;;;;;5064960;28;20047;-52
2023/09/17 08:04:26;;;;;;;;;;;17.90;99.90;;;;;;5060865;28;20120;-53
2023/09/17 08:06:52;;;;;;;46.90;40.35;;;18.00;99.90;;;;;;5059036;28;20066;-53
2023/09/17 08:09:18;;;;;;;48.38;41.25;;;18.00;99.90;;;;;;5056969;28;20041;-53
2023/09/17 08:11:43;;;;;;;47.67;42.55;;;18.00;99.90;;;;;;5052698;28;20035;-53
2023/09/17 08:14:10;;;;;;;48.25;43.03;;;18.10;99.90;;;;;;5052852;28;20040;-50
2023/09/17 08:16:36;;;;;;;43.70;38.80;;;18.10;99.90;;;;;;5061613;28;20463;-54
2023/09/17 08:19:01;;;;;;;;;;;18.10;99.90;;;;;;5055399;28;20040;-55
2023/09/17 08:21:27;;;;;;;51.70;38.10;;;18.10;99.90;;;;;;5054582;28;19943;-51
2023/09/17 08:23:53;;;;;;;;;;;18.20;99.90;;;;;;5064312;28;20040;-50
2023/09/17 08:26:21;;;;;;;42.67;37.55;;;18.20;99.90;;;;;;5059680;28;19924;-53
2023/09/17 08:28:48;;;;;;;42.03;36.53;;;18.30;99.90;;;;;;5069332;28;20048;-53
2023/09/17 08:31:15;;;;;;;44.65;39.47;;;18.40;99.90;;;;;;5061369;28;20599;-52
2023/09/17 08:33:40;;;;;;;44.15;39.40;;;18.40;99.90;;;;;;5050558;28;20110;-53
2023/09/17 08:36:06;;;;;;;47.22;39.88;;;18.50;99.90;;;;;;5055694;28;20060;-54
2023/09/17 08:38:32;;;;;;;35.40;31.55;;;18.50;99.90;;;;;;5056587;28;20024;-55
2023/09/17 08:40:59;;;;;;;37.65;33.03;;;18.50;99.90;;;;;;5054234;28;20039;-53
2023/09/17 08:43:25;;;;;;;38.42;33.88;;;18.60;99.90;;;;;;5057338;28;20040;-55
2023/09/17 08:45:51;;;;;;;35.35;31.67;;;18.60;99.90;;;;;;5059920;28;20472;-53
2023/09/17 08:48:17;;;;;;;;;;;18.60;99.90;;;;;;5053031;28;20051;-51
2023/09/17 08:50:50;;;;;;;33.35;29.88;;;18.70;99.90;;;;;;5059369;28;20430;-53
2023/09/17 08:53:22;;;;;;;35.30;31.30;;;18.70;99.90;;;;;;5055539;28;20507;-53
2023/09/17 08:55:50;;;;;;;40.72;29.50;;;18.70;99.90;;;;;;5062958;28;20122;-52
2023/09/17 08:58:21;;;;;;;44.88;32.97;;;18.70;99.90;;;;;;5064478;28;20116;-55
2023/09/17 09:00:50;;;;;;;39.95;29.10;;;18.70;99.90;;;;;;5060464;28;20048;-52
2023/09/17 09:03:19;;;;;;;36.25;30.10;;;18.70;99.90;;;;;;5057315;28;20060;-53
2023/09/17 09:05:47;;;;;;;41.25;30.75;;;18.70;99.90;;;;;;5061469;28;20037;-52
2023/09/17 09:08:14;;;;;;;30.25;26.90;;;18.70;99.90;;;;;;5051897;28;20040;-52
2023/09/17 09:10:40;;;;;;;34.95;29.58;;;18.80;99.90;;;;;;5055285;28;20061;-54
2023/09/17 09:13:06;;;;;;;30.73;27.35;;;18.70;99.90;;;;;;5058750;28;20043;-53
2023/09/17 09:15:32;;;;;;;32.15;28.15;;;18.70;99.90;;;;;;5064780;28;20399;-51
2023/09/17 09:17:58;;;;;;;37.63;30.90;;;18.70;99.90;;;;;;5066024;28;20428;-53
2023/09/17 09:20:24;;;;;;;41.70;35.55;;;18.70;99.90;;;;;;5066795;28;20116;-52
2023/09/17 09:22:50;;;;;;;;;;;18.70;99.90;;;;;;5067320;28;20059;-52
2023/09/17 09:25:18;;;;;;;44.92;33.47;;;18.70;99.90;;;;;;5067573;28;20013;-51
2023/09/17 09:27:44;;;;;;;38.40;32.25;;;18.60;99.90;;;;;;5066427;28;20412;-54
2023/09/17 09:30:11;;;;;;;38.72;34.55;;;18.60;99.90;;;;;;5067412;28;20047;-54
2023/09/17 09:32:37;;;;;;;38.80;32.72;;;18.60;99.90;;;;;;5067930;28;20036;-53
2023/09/17 09:35:04;;;;;;;41.95;33.92;;;18.50;99.90;;;;;;5065177;28;20039;-52
2023/09/17 09:37:30;;;;;;;43.45;34.97;;;18.50;99.90;;;;;;5060943;28;20035;-49
2023/09/17 09:39:56;;;;;;;43.75;36.28;;;18.50;99.90;;;;;;5064590;28;20040;-50
2023/09/17 09:42:25;;;;;;;;;;;18.50;99.90;;;;;;5072306;28;20032;-50
2023/09/17 09:44:52;;;;;;;38.97;34.38;;;18.60;99.90;;;;;;5066351;28;20009;-55
2023/09/17 09:47:20;;;;;;;;;;;18.60;99.90;;;;;;5071303;28;20430;-48
2023/09/17 09:49:46;;;;;;;44.97;36.38;;;18.70;99.90;;;;;;5070331;28;19917;-51
2023/09/17 09:52:13;;;;;;;47.28;36.20;;;18.70;99.90;;;;;;5068940;28;20047;-50
2023/09/17 09:54:40;;;;;;;33.03;27.85;;;18.80;99.90;;;;;;5063095;28;20036;-52
2023/09/17 09:57:06;;;;;;;40.20;33.83;;;18.90;99.90;;;;;;5063242;28;20047;-49
2023/09/17 09:59:36;;;;;;;38.17;32.40;;;19.10;99.90;;;;;;5064720;28;20119;-51
2023/09/17 10:02:03;;;;;;;41.55;33.83;;;19.20;99.90;;;;;;5063623;28;20036;-50
2023/09/17 10:04:29;;;;;;;40.45;32.50;;;19.20;99.90;;;;;;5057477;28;20090;-53
2023/09/17 10:06:56;;;;;;;;;;;19.30;99.90;;;;;;5067742;28;20055;-54
2023/09/17 10:09:25;;;;;;;38.80;32.83;;;19.30;99.90;;;;;;5059573;28;19916;-52
2023/09/17 10:11:53;;;;;;;38.22;33.47;;;19.30;99.90;;;;;;5067385;28;20648;-54
2023/09/17 10:14:21;;;;;;;37.13;32.58;;;19.30;99.90;;;;;;5062225;28;20037;-52
2023/09/17 10:16:49;;;;;;;43.55;36.55;;;19.20;99.90;;;;;;5068361;28;20044;-53
2023/09/17 10:19:20;;;;;;;39.17;33.40;;;19.20;99.90;;;;;;5070148;28;20094;-53
2023/09/17 10:21:47;;;;;;;39.25;32.70;;;19.20;99.90;;;;;;5070205;28;20433;-50
2023/09/17 10:24:15;;;;;;;38.03;33.03;;;19.20;99.90;;;;;;5064792;28;20041;-54
2023/09/17 10:26:42;;;;;;;45.78;35.35;;;19.20;99.90;;;;;;5064787;28;20037;-54
2023/09/17 10:29:15;;;;;;;39.85;33.78;;;19.20;99.90;;;;;;5063853;28;20554;-53
2023/09/17 10:31:43;;;;;;;36.55;32.22;;;19.20;99.90;;;;;;5064304;28;20108;-54
2023/09/17 10:34:10;;;;;;;37.28;32.15;;;19.20;99.90;;;;;;5069361;28;20050;-53
2023/09/17 10:36:38;;;;;;;40.88;34.42;;;19.20;99.90;;;;;;5066881;28;20306;-52
2023/09/17 10:39:09;;;;;;;42.40;35.78;;;19.20;99.90;;;;;;5071255;28;20119;-52
2023/09/17 10:41:37;;;;;;;42.38;37.75;;;19.30;99.90;;;;;;5057280;28;20896;-48
2023/09/17 10:44:04;;;;;;;42.28;36.42;;;19.40;99.90;;;;;;5054913;28;20504;-54
2023/09/17 10:46:31;;;;;;;41.65;34.22;;;19.60;99.90;;;;;;5054068;28;20044;-54
2023/09/17 10:48:58;;;;;;;47.88;36.47;;;19.70;99.90;;;;;;5062529;28;20039;-50
2023/09/17 10:51:26;;;;;;;44.13;35.50;;;20.00;99.90;;;;;;5056646;28;20538;-53
2023/09/17 10:53:52;;;;;;;39.17;32.22;;;20.20;99.90;;;;;;5049086;28;20047;-51
2023/09/17 10:56:18;;;;;;;;;;;20.30;99.90;;;;;;5056784;28;20563;-54
2023/09/17 10:58:46;;;;;;;36.85;30.60;;;20.30;99.90;;;;;;5054313;28;19921;-52
2023/09/17 11:01:18;;;;;;;37.90;31.55;;;20.40;99.90;;;;;;5063169;28;20036;-53
2023/09/17 11:04:00;;;;;;;39.03;32.95;;;20.40;99.90;;;;;;5065337;28;20040;-54
2023/09/17 11:06:29;;;;;;;39.33;34.55;;;20.40;99.90;;;;;;5070440;28;20123;-49
2023/09/17 11:08:56;;;;;;;39.92;34.40;;;20.40;99.90;;;;;;5068333;28;20565;-52
2023/09/17 11:11:28;;;;;;;38.97;32.28;;;20.40;99.90;;;;;;5069552;28;20403;-54
2023/09/17 11:13:54;;;;;;;40.47;34.20;;;20.50;99.90;;;;;;5065566;28;20123;-54
2023/09/17 11:16:20;;;;;;;;;;;20.40;99.90;;;;;;5071364;28;20039;-51
2023/09/17 11:19:11;;;;;;;37.70;31.83;;;20.50;99.90;;;;;;5069310;28;20299;-49
2023/09/17 11:21:39;;;;;;;37.78;33.20;;;20.40;99.90;;;;;;5070792;28;20075;-52
2023/09/17 11:24:11;;;;;;;36.00;31.92;;;20.40;99.90;;;;;;5065886;28;20040;-49
2023/09/17 11:26:38;;;;;;;38.65;34.30;;;20.40;99.90;;;;;;5069360;28;20048;-51
2023/09/17 11:29:06;;;;;;;37.53;32.95;;;20.40;99.90;;;;;;5066612;28;20043;-53
2023/09/17 11:31:54;;;;;;;38.88;34.47;;;20.40;99.90;;;;;;5070100;28;20052;-51
2023/09/17 11:34:21;;;;;;;36.90;32.90;;;20.50;99.90;;;;;;5056823;28;20059;-50
2023/09/17 11:36:48;;;;;;;45.15;36.88;;;20.40;99.90;;;;;;5069123;28;20044;-50
2023/09/17 11:39:15;;;;;;;43.08;37.17;;;20.50;99.90;;;;;;5066045;28;20041;-49
2023/09/17 11:41:46;;;;;;;44.33;36.47;;;20.50;99.90;;;;;;5073436;28;20051;-48
2023/09/17 11:44:12;;;;;;;42.97;36.15;;;20.50;99.90;;;;;;5052357;28;20530;-51
2023/09/17 11:46:38;;;;;;;41.65;36.45;;;20.50;99.90;;;;;;5058689;28;20040;-52
2023/09/17 11:49:04;;;;;;;;;;;20.50;99.90;;;;;;5059247;28;20491;-50
2023/09/17 11:51:32;;;;;;;43.22;36.13;;;20.60;99.90;;;;;;5064540;28;19970;-48
2023/09/17 11:54:02;;;;;;;43.22;35.60;;;20.70;99.90;;;;;;5058225;28;20057;-50
2023/09/17 11:56:33;;;;;;;38.50;33.60;;;20.90;99.90;;;;;;5062062;28;20063;-49
2023/09/17 11:59:05;;;;;;;38.58;34.53;;;21.10;99.90;;;;;;5058440;28;20494;-48
2023/09/17 12:01:52;;;;;;;42.97;35.63;;;21.30;99.90;;;;;;5060844;28;20115;-49
2023/09/17 12:04:19;;;;;;;;;;;21.40;99.90;;;;;;5068269;28;20076;-48
2023/09/17 12:06:48;;;;;;;39.20;34.40;;;21.40;99.90;;;;;;5069219;28;20007;-47
2023/09/17 12:09:31;;;;;;;38.30;34.17;;;21.40;99.90;;;;;;5065338;28;20079;-50
2023/09/17 12:11:58;;;;;;;38.72;33.90;;;21.40;99.90;;;;;;5068951;28;20127;-52
2023/09/17 12:14:24;;;;;;;41.88;34.58;;;21.30;99.90;;;;;;5062394;28;20044;-51
2023/09/17 12:16:51;;;;;;;37.75;33.92;;;21.30;99.90;;;;;;5067762;28;20032;-49
2023/09/17 12:19:18;;;;;;;39.63;35.50;;;21.30;99.90;;;;;;5063795;28;20051;-48
2023/09/17 12:21:46;;;;;;;42.03;37.47;;;21.30;99.90;;;;;;5066914;28;20036;-51
2023/09/17 12:24:21;;;;;;;38.65;34.35;;;21.30;99.90;;;;;;5065944;28;20525;-49
2023/09/17 12:27:04;;;;;;;38.25;33.42;;;21.30;99.90;;;;;;5069627;28;20040;-52
2023/09/17 12:29:30;;;;;;;40.97;33.28;;;21.20;99.90;;;;;;5065972;28;20123;-48
2023/09/17 12:31:55;;;;;;;;;;;21.20;99.90;;;;;;5069245;28;20155;-48